Addicks, Texas
Current Conditions -  °F | °C
As of 2:53 AM on Friday 31 Oct 2014 (Local Time) from KSGR Reporting Station
Clear Clear  
Wind Chill: 62°   Ceiling: Unl
Heat Index: 62°   Visibility: 10mi
Dew Point: 58°   Wind: 3mph
Humidity: 86%   Direction: 360°N
Pressure: 30.1"   Gusts: NA
Location:  29.7757°N, 95.6037°W
Report Text: KSGR 310753Z AUTO 36003KT 10SM CLR 17/14 A3010 RMK AO2 SLP194 T01670144
Loading
Personal Weather Stations






























Interactive Weather Map
Tropical Storm Tracking
New forecast layout! Learn more

10-Day Weather Forecast

Advertisements
Track Severe Weather on mobile